Time;durP1;ratioP1;P1;durP2;ratioP2;P2;SDS_P1;SDS_P2;PMS_P1;PMS_P2;Temp;Humidity;BMP_temperature;BMP_pressure;BME280_temperature;BME280_humidity;BME280_pressure;Samples;Min_cycle;Max_cycle;Signal;HPM_P1;HPM_P2
2022/03/08 00:00:58;;;;;;;;;;;;;;;;;;5075518;28;19974;-27
2022/03/08 00:03:25;;;;;;;;;;;;;;;;;;5074646;28;19920;-27
2022/03/08 00:05:50;;;;;;;;;;;;;;;;;;5075458;28;19974;-27
2022/03/08 00:08:16;;;;;;;;;;;;;;;;;;5074791;28;19908;-27
2022/03/08 00:10:42;;;;;;;;;;;;;;;;;;5075080;28;19912;-27
2022/03/08 00:13:09;;;;;;;;;;;;;;;;;;5075008;28;19911;-27
2022/03/08 00:15:35;;;;;;;;;;;;;;;;;;5077662;28;19913;-27
2022/03/08 00:18:01;;;;;;;;;;;;;;;;;;5078762;28;19908;-27
2022/03/08 00:20:27;;;;;;;;;;;;;;;;;;5078753;28;19920;-26
2022/03/08 00:22:53;;;;;;;;;;;;;;;;;;5078576;28;19912;-27
2022/03/08 00:25:19;;;;;;;;;;;;;;;;;;5078906;28;20313;-27
2022/03/08 00:27:48;;;;;;;;;;;;;;;;;;5078571;28;19913;-27
2022/03/08 00:30:14;;;;;;;;;;;;;;;;;;5078735;28;19970;-27
2022/03/08 00:32:40;;;;;;;;;;;;;;;;;;5078396;28;19920;-27
2022/03/08 00:35:06;;;;;;;;;;;;;;;;;;5078413;28;19912;-27
2022/03/08 00:37:32;;;;;;;;;;;;;;;;;;5079444;28;19935;-27
2022/03/08 00:39:58;;;;;;;;;;;;;;;;;;5078323;28;20259;-27
2022/03/08 00:42:24;;;;;;;;;;;;;;;;;;5078512;28;19912;-26
2022/03/08 00:44:50;;;;;;;;;;;;;;;;;;5078302;28;19912;-27
2022/03/08 00:47:16;;;;;;;;;;;;;;;;;;5078754;28;20015;-27
2022/03/08 00:49:42;;;;;;;;;;;;;;;;;;5078116;28;19995;-27
2022/03/08 00:52:08;;;;;;;;;;;;;;;;;;5078530;28;19920;-26
2022/03/08 00:54:34;;;;;;;;;;;;;;;;;;5078704;28;20327;-27
2022/03/08 00:57:00;;;;;;;;;;;;;;;;;;5078012;28;19913;-27
2022/03/08 00:59:26;;;;;;;;;;;;;;;;;;5077081;28;19913;-27
2022/03/08 01:01:52;;;;;;;;;;;;;;;;;;5077874;28;19916;-27
2022/03/08 01:04:17;;;;;;;;;;;;;;;;;;5077724;28;19928;-27
2022/03/08 01:06:43;;;;;;;;;;;;;;;;;;5077872;28;19916;-27
2022/03/08 01:09:09;;;;;;;;;;;;;;;;;;5077693;28;20335;-27
2022/03/08 01:11:39;;;;;;;;;;;;;;;;;;5077758;28;19912;-27
2022/03/08 01:14:06;;;;;;;;;;;;;;;;;;5077617;28;19954;-27
2022/03/08 01:16:32;;;;;;;;;;;;;;;;;;5077954;28;19993;-27
2022/03/08 01:18:58;;;;;;;;;;;;;;;;;;5077924;28;20294;-27
2022/03/08 01:21:24;;;;;;;;;;;;;;;;;;5077577;28;20359;-26
2022/03/08 01:23:50;;;;;;;;;;;;;;;;;;5077519;28;19916;-27
2022/03/08 01:26:16;;;;;;;;;;;;;;;;;;5077393;28;19947;-27
2022/03/08 01:28:42;;;;;;;;;;;;;;;;;;5077407;28;20014;-26
2022/03/08 01:31:08;;;;;;;;;;;;;;;;;;5077958;28;19912;-27
2022/03/08 01:33:35;;;;;;;;;;;;;;;;;;5077275;28;19944;-26
2022/03/08 01:36:01;;;;;;;;;;;;;;;;;;5077233;28;19912;-27
2022/03/08 01:38:27;;;;;;;;;;;;;;;;;;5077268;28;19919;-27
2022/03/08 01:40:53;;;;;;;;;;;;;;;;;;5077199;28;19974;-27
2022/03/08 01:43:19;;;;;;;;;;;;;;;;;;5077079;28;19909;-27
2022/03/08 01:45:45;;;;;;;;;;;;;;;;;;5077378;28;19966;-27
2022/03/08 01:48:11;;;;;;;;;;;;;;;;;;5076962;28;20017;-27
2022/03/08 01:50:37;;;;;;;;;;;;;;;;;;5077090;28;19912;-27
2022/03/08 01:53:03;;;;;;;;;;;;;;;;;;5076927;28;19913;-27
2022/03/08 01:55:29;;;;;;;;;;;;;;;;;;5076936;28;19912;-27
2022/03/08 01:57:55;;;;;;;;;;;;;;;;;;5076866;28;19970;-27
2022/03/08 02:00:21;;;;;;;;;;;;;;;;;;5076872;28;20003;-27
2022/03/08 02:02:46;;;;;;;;;;;;;;;;;;5076950;28;20040;-27
2022/03/08 02:05:12;;;;;;;;;;;;;;;;;;5076559;28;19927;-27
2022/03/08 02:07:38;;;;;;;;;;;;;;;;;;5076955;28;20332;-27
2022/03/08 02:10:04;;;;;;;;;;;;;;;;;;5076837;28;19935;-27
2022/03/08 02:12:30;;;;;;;;;;;;;;;;;;5076481;28;19920;-27
2022/03/08 02:14:56;;;;;;;;;;;;;;;;;;5077145;28;19971;-27
2022/03/08 02:17:22;;;;;;;;;;;;;;;;;;5076490;28;19920;-27
2022/03/08 02:19:48;;;;;;;;;;;;;;;;;;5076469;28;19909;-27
2022/03/08 02:22:14;;;;;;;;;;;;;;;;;;5076340;28;19912;-27
2022/03/08 02:24:40;;;;;;;;;;;;;;;;;;5076865;28;19913;-27
2022/03/08 02:27:06;;;;;;;;;;;;;;;;;;5076272;28;19999;-27
2022/03/08 02:29:32;;;;;;;;;;;;;;;;;;5076733;28;19955;-27
2022/03/08 02:31:58;;;;;;;;;;;;;;;;;;5076097;28;20343;-27
2022/03/08 02:34:24;;;;;;;;;;;;;;;;;;5076235;28;19916;-27
2022/03/08 02:36:50;;;;;;;;;;;;;;;;;;5075621;28;19919;-27
2022/03/08 02:39:16;;;;;;;;;;;;;;;;;;5076682;28;19908;-27
2022/03/08 02:41:43;;;;;;;;;;;;;;;;;;5076016;28;20251;-27
2022/03/08 02:44:09;;;;;;;;;;;;;;;;;;5076240;28;19935;-27
2022/03/08 02:46:35;;;;;;;;;;;;;;;;;;5076443;28;20354;-27
2022/03/08 02:49:01;;;;;;;;;;;;;;;;;;5074860;28;19965;-27
2022/03/08 02:51:27;;;;;;;;;;;;;;;;;;5075811;28;19935;-27
2022/03/08 02:53:53;;;;;;;;;;;;;;;;;;5075774;28;20335;-26
2022/03/08 02:56:19;;;;;;;;;;;;;;;;;;5075733;28;19916;-27
2022/03/08 02:58:45;;;;;;;;;;;;;;;;;;5075704;28;20349;-27
2022/03/08 03:01:11;;;;;;;;;;;;;;;;;;5075897;28;19914;-27
2022/03/08 03:03:37;;;;;;;;;;;;;;;;;;5075355;28;19966;-27
2022/03/08 03:06:03;;;;;;;;;;;;;;;;;;5075494;28;19923;-27
2022/03/08 03:08:29;;;;;;;;;;;;;;;;;;5075486;28;19913;-27
2022/03/08 03:10:55;;;;;;;;;;;;;;;;;;5075501;28;19919;-27
2022/03/08 03:13:21;;;;;;;;;;;;;;;;;;5075364;28;20343;-27
2022/03/08 03:15:47;;;;;;;;;;;;;;;;;;5076040;28;19916;-27
2022/03/08 03:18:13;;;;;;;;;;;;;;;;;;5075665;28;19916;-27
2022/03/08 03:20:39;;;;;;;;;;;;;;;;;;5075671;28;20049;-27
2022/03/08 03:23:05;;;;;;;;;;;;;;;;;;5075576;28;19966;-27
2022/03/08 03:25:31;;;;;;;;;;;;;;;;;;5075345;28;20430;-27
2022/03/08 03:27:57;;;;;;;;;;;;;;;;;;5075602;28;19931;-27
2022/03/08 03:30:23;;;;;;;;;;;;;;;;;;5075489;28;19920;-27
2022/03/08 03:32:49;;;;;;;;;;;;;;;;;;5075361;28;20359;-27
2022/03/08 03:35:15;;;;;;;;;;;;;;;;;;5075798;28;19995;-27
2022/03/08 03:37:41;;;;;;;;;;;;;;;;;;5075179;28;19999;-27
2022/03/08 03:40:07;;;;;;;;;;;;;;;;;;5074282;28;19909;-27
2022/03/08 03:42:33;;;;;;;;;;;;;;;;;;5075100;28;20081;-27
2022/03/08 03:44:59;;;;;;;;;;;;;;;;;;5075117;28;19909;-27
2022/03/08 03:47:25;;;;;;;;;;;;;;;;;;5075114;28;19999;-27
2022/03/08 03:49:51;;;;;;;;;;;;;;;;;;5074446;28;19955;-27
2022/03/08 03:52:17;;;;;;;;;;;;;;;;;;5074920;28;19917;-27
2022/03/08 03:54:43;;;;;;;;;;;;;;;;;;5075598;28;19916;-27
2022/03/08 03:57:11;;;;;;;;;;;;;;;;;;5074977;28;20011;-27
2022/03/08 03:59:37;;;;;;;;;;;;;;;;;;5074917;28;19909;-27
2022/03/08 04:02:03;;;;;;;;;;;;;;;;;;5075238;28;19922;-27
2022/03/08 04:04:29;;;;;;;;;;;;;;;;;;5074766;28;19920;-27
2022/03/08 04:06:55;;;;;;;;;;;;;;;;;;5074886;28;20224;-27
2022/03/08 04:09:21;;;;;;;;;;;;;;;;;;5074841;28;20262;-27
2022/03/08 04:11:47;;;;;;;;;;;;;;;;;;5075038;28;20298;-27
2022/03/08 04:14:13;;;;;;;;;;;;;;;;;;5074906;28;19953;-27
2022/03/08 04:16:39;;;;;;;;;;;;;;;;;;5075064;28;20284;-27
2022/03/08 04:19:05;;;;;;;;;;;;;;;;;;5075376;28;19948;-27
2022/03/08 04:21:31;;;;;;;;;;;;;;;;;;5074744;28;19962;-27
2022/03/08 04:23:59;;;;;;;;;;;;;;;;;;5074721;28;19944;-27
2022/03/08 04:26:25;;;;;;;;;;;;;;;;;;5074763;28;19955;-27
2022/03/08 04:28:51;;;;;;;;;;;;;;;;;;5074662;28;19956;-27
2022/03/08 04:31:16;;;;;;;;;;;;;;;;;;5075266;28;19912;-27
2022/03/08 04:33:42;;;;;;;;;;;;;;;;;;5074735;28;19909;-27
2022/03/08 04:36:08;;;;;;;;;;;;;;;;;;5074911;28;19916;-27
2022/03/08 04:38:34;;;;;;;;;;;;;;;;;;5074922;28;19916;-27
2022/03/08 04:41:05;;;;;;;;;;;;;;;;;;5074559;28;19912;-26
2022/03/08 04:43:31;;;;;;;;;;;;;;;;;;5074444;28;19915;-27
2022/03/08 04:45:57;;;;;;;;;;;;;;;;;;5074805;28;20336;-27
2022/03/08 04:48:23;;;;;;;;;;;;;;;;;;5074420;28;19927;-27
2022/03/08 04:50:49;;;;;;;;;;;;;;;;;;5074736;28;19916;-27
2022/03/08 04:53:15;;;;;;;;;;;;;;;;;;5074507;28;20012;-27
2022/03/08 04:55:41;;;;;;;;;;;;;;;;;;5074350;28;19912;-27
2022/03/08 04:58:07;;;;;;;;;;;;;;;;;;5074570;28;20332;-27
2022/03/08 05:00:33;;;;;;;;;;;;;;;;;;5075502;28;20417;-27
2022/03/08 05:02:59;;;;;;;;;;;;;;;;;;5077797;28;19917;-27
2022/03/08 05:05:25;;;;;;;;;;;;;;;;;;5077976;28;19918;-27
2022/03/08 05:07:51;;;;;;;;;;;;;;;;;;5077336;28;19913;-27
2022/03/08 05:10:17;;;;;;;;;;;;;;;;;;5077332;28;19923;-27
2022/03/08 05:12:43;;;;;;;;;;;;;;;;;;5077364;28;19913;-27
2022/03/08 05:15:09;;;;;;;;;;;;;;;;;;5077481;28;20385;-27
2022/03/08 05:17:35;;;;;;;;;;;;;;;;;;5077771;28;19908;-27
2022/03/08 05:20:01;;;;;;;;;;;;;;;;;;5078058;28;19912;-27
2022/03/08 05:22:27;;;;;;;;;;;;;;;;;;5078389;28;19912;-27
2022/03/08 05:24:53;;;;;;;;;;;;;;;;;;5077337;28;19912;-27
2022/03/08 05:27:19;;;;;;;;;;;;;;;;;;5077545;28;19912;-27
2022/03/08 05:29:45;;;;;;;;;;;;;;;;;;5077103;28;19923;-27
2022/03/08 05:32:11;;;;;;;;;;;;;;;;;;5077428;28;19978;-27
2022/03/08 05:34:37;;;;;;;;;;;;;;;;;;5077715;28;19909;-27
2022/03/08 05:37:03;;;;;;;;;;;;;;;;;;5077366;28;19913;-28
2022/03/08 05:39:29;;;;;;;;;;;;;;;;;;5077191;28;20343;-27
2022/03/08 05:41:55;;;;;;;;;;;;;;;;;;5077297;28;19913;-27
2022/03/08 05:44:21;;;;;;;;;;;;;;;;;;5077114;28;19908;-27
2022/03/08 05:46:47;;;;;;;;;;;;;;;;;;5077013;28;19916;-27
2022/03/08 05:49:13;;;;;;;;;;;;;;;;;;5076856;28;19919;-27
2022/03/08 05:51:39;;;;;;;;;;;;;;;;;;5077053;28;20370;-27
2022/03/08 05:54:04;;;;;;;;;;;;;;;;;;5075832;28;19940;-27
2022/03/08 05:56:30;;;;;;;;;;;;;;;;;;5077167;28;19943;-27
2022/03/08 05:58:56;;;;;;;;;;;;;;;;;;5076760;28;20374;-27
2022/03/08 06:01:22;;;;;;;;;;;;;;;;;;5076822;28;20343;-27
2022/03/08 06:03:48;;;;;;;;;;;;;;;;;;5076277;28;19920;-27
2022/03/08 06:06:14;;;;;;;;;;;;;;;;;;5076407;28;19912;-26
2022/03/08 06:08:41;;;;;;;;;;;;;;;;;;5076837;28;19912;-26
2022/03/08 06:11:07;;;;;;;;;;;;;;;;;;5076610;28;19940;-26
2022/03/08 06:13:33;;;;;;;;;;;;;;;;;;5075427;28;20362;-26
2022/03/08 06:15:59;;;;;;;;;;;;;;;;;;5076306;28;19961;-26
2022/03/08 06:18:25;;;;;;;;;;;;;;;;;;5076570;28;19912;-26
2022/03/08 06:20:51;;;;;;;;;;;;;;;;;;5076184;28;20009;-26
2022/03/08 06:23:17;;;;;;;;;;;;;;;;;;5076034;28;19916;-26
2022/03/08 06:25:43;;;;;;;;;;;;;;;;;;5076695;28;19919;-26
2022/03/08 06:28:08;;;;;;;;;;;;;;;;;;5076089;28;19939;-26
2022/03/08 06:30:34;;;;;;;;;;;;;;;;;;5076448;28;19947;-26
2022/03/08 06:33:00;;;;;;;;;;;;;;;;;;5075755;28;20438;-26
2022/03/08 06:35:26;;;;;;;;;;;;;;;;;;5074865;28;19917;-26
2022/03/08 06:37:52;;;;;;;;;;;;;;;;;;5076183;28;19935;-26
2022/03/08 06:40:18;;;;;;;;;;;;;;;;;;5075788;28;19913;-26
2022/03/08 06:42:44;;;;;;;;;;;;;;;;;;5075692;28;20262;-27
2022/03/08 06:45:10;;;;;;;;;;;;;;;;;;5075573;28;19912;-26
2022/03/08 06:47:36;;;;;;;;;;;;;;;;;;5075729;28;19908;-26
2022/03/08 06:50:02;;;;;;;;;;;;;;;;;;5075518;28;19939;-27
2022/03/08 06:52:28;;;;;;;;;;;;;;;;;;5075480;28;19912;-27
2022/03/08 06:54:54;;;;;;;;;;;;;;;;;;5075720;28;19916;-26
2022/03/08 06:57:20;;;;;;;;;;;;;;;;;;5075608;28;19916;-27
2022/03/08 06:59:46;;;;;;;;;;;;;;;;;;5075128;28;20061;-26
2022/03/08 07:02:12;;;;;;;;;;;;;;;;;;5075585;28;19944;-27
2022/03/08 07:04:39;;;;;;;;;;;;;;;;;;5075109;28;19951;-27
2022/03/08 07:07:04;;;;;;;;;;;;;;;;;;5075174;28;19920;-27
2022/03/08 07:09:30;;;;;;;;;;;;;;;;;;5075477;28;19912;-27
2022/03/08 07:11:56;;;;;;;;;;;;;;;;;;5075203;28;19912;-27
2022/03/08 07:14:22;;;;;;;;;;;;;;;;;;5075288;28;19916;-27
2022/03/08 07:16:48;;;;;;;;;;;;;;;;;;5075501;28;19923;-27
2022/03/08 07:19:14;;;;;;;;;;;;;;;;;;5075182;28;19908;-26
2022/03/08 07:21:40;;;;;;;;;;;;;;;;;;5075163;28;19912;-27
2022/03/08 07:24:06;;;;;;;;;;;;;;;;;;5074974;28;20362;-27
2022/03/08 07:26:32;;;;;;;;;;;;;;;;;;5075125;28;19966;-27
2022/03/08 07:28:58;;;;;;;;;;;;;;;;;;5075023;28;19920;-26
2022/03/08 07:31:24;;;;;;;;;;;;;;;;;;5075069;28;20002;-27
2022/03/08 07:33:51;;;;;;;;;;;;;;;;;;5074911;28;20013;-27
2022/03/08 07:36:17;;;;;;;;;;;;;;;;;;5075722;28;19924;-27
2022/03/08 07:38:43;;;;;;;;;;;;;;;;;;5074884;28;19908;-26
2022/03/08 07:41:09;;;;;;;;;;;;;;;;;;5075092;28;20309;-26
2022/03/08 07:43:35;;;;;;;;;;;;;;;;;;5075090;28;19920;-26
2022/03/08 07:46:01;;;;;;;;;;;;;;;;;;5074869;28;19912;-26
2022/03/08 07:48:27;;;;;;;;;;;;;;;;;;5074563;28;19908;-26
2022/03/08 07:50:53;;;;;;;;;;;;;;;;;;5073764;28;19970;-27
2022/03/08 07:53:19;;;;;;;;;;;;;;;;;;5075284;28;19915;-26
2022/03/08 07:55:46;;;;;;;;;;;;;;;;;;5075251;28;19939;-27
2022/03/08 07:58:14;;;;;;;;;;;;;;;;;;5074658;28;19908;-27
2022/03/08 08:00:40;;;;;;;;;;;;;;;;;;5074676;28;20347;-27
2022/03/08 08:03:07;;;;;;;;;;;;;;;;;;5074936;28;19919;-27
2022/03/08 08:05:34;;;;;;;;;;;;;;;;;;5074549;28;19913;-26
2022/03/08 08:08:00;;;;;;;;;;;;;;;;;;5074641;28;19920;-27
2022/03/08 08:10:26;;;;;;;;;;;;;;;;;;5074682;28;19969;-27
2022/03/08 08:12:52;;;;;;;;;;;;;;;;;;5074583;28;19943;-27
2022/03/08 08:15:18;;;;;;;;;;;;;;;;;;5074605;28;20416;-27
2022/03/08 08:17:44;;;;;;;;;;;;;;;;;;5074998;28;19916;-27
2022/03/08 08:20:10;;;;;;;;;;;;;;;;;;5074457;28;19942;-27
2022/03/08 08:22:36;;;;;;;;;;;;;;;;;;5074541;28;19919;-27
2022/03/08 08:25:02;;;;;;;;;;;;;;;;;;5075458;28;19923;-27
2022/03/08 08:27:28;;;;;;;;;;;;;;;;;;5074355;28;19912;-27
2022/03/08 08:29:54;;;;;;;;;;;;;;;;;;5074262;28;19916;-26
2022/03/08 08:32:20;;;;;;;;;;;;;;;;;;5074598;28;19912;-27
2022/03/08 08:34:46;;;;;;;;;;;;;;;;;;5074582;28;19908;-27
2022/03/08 08:37:12;;;;;;;;;;;;;;;;;;5078100;28;19999;-27
2022/03/08 08:39:38;;;;;;;;;;;;;;;;;;5078579;28;19912;-27
2022/03/08 08:42:04;;;;;;;;;;;;;;;;;;5078175;28;20256;-27
2022/03/08 08:44:30;;;;;;;;;;;;;;;;;;5078143;28;19913;-27
2022/03/08 08:46:56;;;;;;;;;;;;;;;;;;5077949;28;20250;-26
2022/03/08 08:49:25;;;;;;;;;;;;;;;;;;5077850;28;19912;-26
2022/03/08 08:51:51;;;;;;;;;;;;;;;;;;5077892;28;19931;-26
2022/03/08 08:54:17;;;;;;;;;;;;;;;;;;5077834;28;19920;-27
2022/03/08 08:56:43;;;;;;;;;;;;;;;;;;5077805;28;19920;-27
2022/03/08 08:59:09;;;;;;;;;;;;;;;;;;5077773;28;19974;-27
2022/03/08 09:01:35;;;;;;;;;;;;;;;;;;5077989;28;20248;-26
2022/03/08 09:04:01;;;;;;;;;;;;;;;;;;5077437;28;19928;-27
2022/03/08 09:06:27;;;;;;;;;;;;;;;;;;5078272;28;19923;-27
2022/03/08 09:08:54;;;;;;;;;;;;;;;;;;5077648;28;19913;-27
2022/03/08 09:11:20;;;;;;;;;;;;;;;;;;5077624;28;19912;-27
2022/03/08 09:13:47;;;;;;;;;;;;;;;;;;5077309;28;19950;-26
2022/03/08 09:16:14;;;;;;;;;;;;;;;;;;5077325;28;19973;-27
2022/03/08 09:18:41;;;;;;;;;;;;;;;;;;5077422;28;19920;-26
2022/03/08 09:21:07;;;;;;;;;;;;;;;;;;5077276;28;19913;-26
2022/03/08 09:23:33;;;;;;;;;;;;;;;;;;5077855;28;20054;-26
2022/03/08 09:25:59;;;;;;;;;;;;;;;;;;5077632;28;20228;-27
2022/03/08 09:28:25;;;;;;;;;;;;;;;;;;5077468;28;19924;-27
2022/03/08 09:30:51;;;;;;;;;;;;;;;;;;5077670;28;19909;-27
2022/03/08 09:33:17;;;;;;;;;;;;;;;;;;5077355;28;19912;-27
2022/03/08 09:35:43;;;;;;;;;;;;;;;;;;5077081;28;19913;-26
2022/03/08 09:38:11;;;;;;;;;;;;;;;;;;5076977;28;19965;-26
2022/03/08 09:40:37;;;;;;;;;;;;;;;;;;5077150;28;19939;-26
2022/03/08 09:43:03;;;;;;;;;;;;;;;;;;5077525;28;19913;-26
2022/03/08 09:45:29;;;;;;;;;;;;;;;;;;5077042;28;19939;-26
2022/03/08 09:47:55;;;;;;;;;;;;;;;;;;5075742;28;20282;-26
2022/03/08 09:50:21;;;;;;;;;;;;;;;;;;5075782;28;19916;-26
2022/03/08 09:52:47;;;;;;;;;;;;;;;;;;5077131;28;19908;-26
2022/03/08 09:55:14;;;;;;;;;;;;;;;;;;5077086;28;20355;-26
2022/03/08 09:57:40;;;;;;;;;;;;;;;;;;5076599;28;19920;-26
2022/03/08 10:00:06;;;;;;;;;;;;;;;;;;5077050;28;19913;-26
2022/03/08 10:02:32;;;;;;;;;;;;;;;;;;5076541;28;19912;-26
2022/03/08 10:04:58;;;;;;;;;;;;;;;;;;5076376;28;19963;-26
2022/03/08 10:07:24;;;;;;;;;;;;;;;;;;5076847;28;19921;-26
2022/03/08 10:09:50;;;;;;;;;;;;;;;;;;5076994;28;19924;-26
2022/03/08 10:12:16;;;;;;;;;;;;;;;;;;5076487;28;19920;-27
2022/03/08 10:14:42;;;;;;;;;;;;;;;;;;5076426;28;20003;-27
2022/03/08 10:17:08;;;;;;;;;;;;;;;;;;5076418;28;20305;-27
2022/03/08 10:19:34;;;;;;;;;;;;;;;;;;5076673;28;19960;-27
2022/03/08 10:22:00;;;;;;;;;;;;;;;;;;5076214;28;19912;-27
2022/03/08 10:24:26;;;;;;;;;;;;;;;;;;5076172;28;19919;-27
2022/03/08 10:26:52;;;;;;;;;;;;;;;;;;5076144;28;19954;-27
2022/03/08 10:29:27;;;;;;;;;;;;;;;;;;5076265;28;19912;-27
2022/03/08 10:31:53;;;;;;;;;;;;;;;;;;5076126;28;19996;-27
2022/03/08 10:34:20;;;;;;;;;;;;;;;;;;5075976;28;19915;-27
2022/03/08 10:36:46;;;;;;;;;;;;;;;;;;5075754;28;19954;-27
2022/03/08 10:39:12;;;;;;;;;;;;;;;;;;5075935;28;19917;-27
2022/03/08 10:41:38;;;;;;;;;;;;;;;;;;5075775;28;19912;-27
2022/03/08 10:44:04;;;;;;;;;;;;;;;;;;5076027;28;19913;-27
2022/03/08 10:46:30;;;;;;;;;;;;;;;;;;5075752;28;19913;-27
2022/03/08 10:48:56;;;;;;;;;;;;;;;;;;5075658;28;19962;-27
2022/03/08 10:51:22;;;;;;;;;;;;;;;;;;5075591;28;19982;-27
2022/03/08 10:53:48;;;;;;;;;;;;;;;;;;5075748;28;19912;-27
2022/03/08 10:56:14;;;;;;;;;;;;;;;;;;5075437;28;19912;-27
2022/03/08 10:58:40;;;;;;;;;;;;;;;;;;5075135;28;19912;-27
2022/03/08 11:01:06;;;;;;;;;;;;;;;;;;5075531;28;20336;-27
2022/03/08 11:03:32;;;;;;;;;;;;;;;;;;5074905;28;19942;-27
2022/03/08 11:06:05;;;;;;;;;;;;;;;;;;5075088;28;20347;-27
2022/03/08 11:08:31;;;;;;;;;;;;;;;;;;5075116;28;19908;-27
2022/03/08 11:10:57;;;;;;;;;;;;;;;;;;5075040;28;19981;-27
2022/03/08 11:13:23;;;;;;;;;;;;;;;;;;5074966;28;19953;-27
2022/03/08 11:15:49;;;;;;;;;;;;;;;;;;5074948;28;20332;-28
2022/03/08 11:18:15;;;;;;;;;;;;;;;;;;5075178;28;19908;-27
2022/03/08 11:20:41;;;;;;;;;;;;;;;;;;5074688;28;19912;-28
2022/03/08 11:23:07;;;;;;;;;;;;;;;;;;5075120;28;20255;-27
2022/03/08 11:25:33;;;;;;;;;;;;;;;;;;5074991;28;20250;-27
2022/03/08 11:27:59;;;;;;;;;;;;;;;;;;5074983;28;20229;-26
2022/03/08 11:30:26;;;;;;;;;;;;;;;;;;5075144;28;19916;-26
2022/03/08 11:32:52;;;;;;;;;;;;;;;;;;5074514;28;19922;-26
2022/03/08 11:35:18;;;;;;;;;;;;;;;;;;5074673;28;19923;-26
2022/03/08 11:37:43;;;;;;;;;;;;;;;;;;5074602;28;19912;-27
2022/03/08 11:40:10;;;;;;;;;;;;;;;;;;5073575;28;19948;-27
2022/03/08 11:42:37;;;;;;;;;;;;;;;;;;5074469;28;19951;-27
2022/03/08 11:45:03;;;;;;;;;;;;;;;;;;5074654;28;19916;-26
2022/03/08 11:47:29;;;;;;;;;;;;;;;;;;5073444;28;20228;-26
2022/03/08 11:49:55;;;;;;;;;;;;;;;;;;5074423;28;19917;-26
2022/03/08 11:52:22;;;;;;;;;;;;;;;;;;5074361;28;19912;-26
2022/03/08 11:54:48;;;;;;;;;;;;;;;;;;5075201;28;20373;-27
2022/03/08 11:57:17;;;;;;;;;;;;;;;;;;5074530;28;20007;-27
2022/03/08 11:59:43;;;;;;;;;;;;;;;;;;5075046;28;20297;-27
2022/03/08 12:02:09;;;;;;;;;;;;;;;;;;5074565;28;19913;-27
2022/03/08 12:04:35;;;;;;;;;;;;;;;;;;5074341;28;19931;-27
2022/03/08 12:07:04;;;;;;;;;;;;;;;;;;5074594;28;19944;-27
2022/03/08 12:09:30;;;;;;;;;;;;;;;;;;5074443;28;19995;-27
2022/03/08 12:11:56;;;;;;;;;;;;;;;;;;5078092;28;19940;-27
2022/03/08 12:14:22;;;;;;;;;;;;;;;;;;5078621;28;20220;-27
2022/03/08 12:16:48;;;;;;;;;;;;;;;;;;5078907;28;19912;-27
2022/03/08 12:19:14;;;;;;;;;;;;;;;;;;5078508;28;19928;-26
2022/03/08 12:21:40;;;;;;;;;;;;;;;;;;5078413;28;19919;-26
2022/03/08 12:24:06;;;;;;;;;;;;;;;;;;5078222;28;19909;-26
2022/03/08 12:26:33;;;;;;;;;;;;;;;;;;5078755;28;19912;-27
2022/03/08 12:28:59;;;;;;;;;;;;;;;;;;5078139;28;19913;-26
2022/03/08 12:31:25;;;;;;;;;;;;;;;;;;5078624;28;19912;-27
2022/03/08 12:33:51;;;;;;;;;;;;;;;;;;5078040;28;19909;-26
2022/03/08 12:36:17;;;;;;;;;;;;;;;;;;5078372;28;20007;-26
2022/03/08 12:38:43;;;;;;;;;;;;;;;;;;5078261;28;19909;-27
2022/03/08 12:41:09;;;;;;;;;;;;;;;;;;5077892;28;20270;-27
2022/03/08 12:43:35;;;;;;;;;;;;;;;;;;5077956;28;19908;-26
2022/03/08 12:46:01;;;;;;;;;;;;;;;;;;5078202;28;19912;-26
2022/03/08 12:48:27;;;;;;;;;;;;;;;;;;5078156;28;19908;-26
2022/03/08 12:50:53;;;;;;;;;;;;;;;;;;5077973;28;19955;-26
2022/03/08 12:53:25;;;;;;;;;;;;;;;;;;5078174;28;19992;-26
2022/03/08 12:55:51;;;;;;;;;;;;;;;;;;5078096;28;19999;-27
2022/03/08 12:58:17;;;;;;;;;;;;;;;;;;5078422;28;19970;-27
2022/03/08 13:00:43;;;;;;;;;;;;;;;;;;5078066;28;20027;-27
2022/03/08 13:03:10;;;;;;;;;;;;;;;;;;5077617;28;20363;-27
2022/03/08 13:05:36;;;;;;;;;;;;;;;;;;5077667;28;19909;-27
2022/03/08 13:08:02;;;;;;;;;;;;;;;;;;5077686;28;20359;-27
2022/03/08 13:10:28;;;;;;;;;;;;;;;;;;5077495;28;19923;-27
2022/03/08 13:12:54;;;;;;;;;;;;;;;;;;5077654;28;19951;-27
2022/03/08 13:15:22;;;;;;;;;;;;;;;;;;5077421;28;19916;-26
2022/03/08 13:17:49;;;;;;;;;;;;;;;;;;5077566;28;19908;-26
2022/03/08 13:20:14;;;;;;;;;;;;;;;;;;5077195;28;19912;-26
2022/03/08 13:22:40;;;;;;;;;;;;;;;;;;5077180;28;19951;-26
2022/03/08 13:25:09;;;;;;;;;;;;;;;;;;5077204;28;19912;-26
2022/03/08 13:27:35;;;;;;;;;;;;;;;;;;5077034;28;19916;-26
2022/03/08 13:30:01;;;;;;;;;;;;;;;;;;5076929;28;19913;-27
2022/03/08 13:32:28;;;;;;;;;;;;;;;;;;5077038;28;19913;-27
2022/03/08 13:34:54;;;;;;;;;;;;;;;;;;5077691;28;19924;-27
2022/03/08 13:37:21;;;;;;;;;;;;;;;;;;5077470;28;19912;-27
2022/03/08 13:39:47;;;;;;;;;;;;;;;;;;5077105;28;19916;-27
2022/03/08 13:42:14;;;;;;;;;;;;;;;;;;5077049;28;20276;-27
2022/03/08 13:44:40;;;;;;;;;;;;;;;;;;5077087;28;19974;-27
2022/03/08 13:47:06;;;;;;;;;;;;;;;;;;5077216;28;20353;-27
2022/03/08 13:49:32;;;;;;;;;;;;;;;;;;5076724;28;19966;-27
2022/03/08 13:51:59;;;;;;;;;;;;;;;;;;5076804;28;19912;-27
2022/03/08 13:54:25;;;;;;;;;;;;;;;;;;5076498;28;19948;-27
2022/03/08 13:56:51;;;;;;;;;;;;;;;;;;5076443;28;19919;-27
2022/03/08 13:59:17;;;;;;;;;;;;;;;;;;5076793;28;19939;-27
2022/03/08 14:01:43;;;;;;;;;;;;;;;;;;5076790;28;20385;-27
2022/03/08 14:04:09;;;;;;;;;;;;;;;;;;5076279;28;19924;-27
2022/03/08 14:06:36;;;;;;;;;;;;;;;;;;5077024;28;19992;-27
2022/03/08 14:09:02;;;;;;;;;;;;;;;;;;5077068;28;19913;-27
2022/03/08 14:11:28;;;;;;;;;;;;;;;;;;5076421;28;19942;-26
2022/03/08 14:13:54;;;;;;;;;;;;;;;;;;5076260;28;19978;-26
2022/03/08 14:16:20;;;;;;;;;;;;;;;;;;5076091;28;19975;-27
2022/03/08 14:18:46;;;;;;;;;;;;;;;;;;5076064;28;20343;-27
2022/03/08 14:21:12;;;;;;;;;;;;;;;;;;5076156;28;19924;-27
2022/03/08 14:23:38;;;;;;;;;;;;;;;;;;5076129;28;19909;-27
2022/03/08 14:26:05;;;;;;;;;;;;;;;;;;5075038;28;19939;-27
2022/03/08 14:28:31;;;;;;;;;;;;;;;;;;5076261;28;19962;-27
2022/03/08 14:30:57;;;;;;;;;;;;;;;;;;5076062;28;19908;-27
2022/03/08 14:33:22;;;;;;;;;;;;;;;;;;5074090;28;20239;-27
2022/03/08 14:35:48;;;;;;;;;;;;;;;;;;5075930;28;19909;-27
2022/03/08 14:38:14;;;;;;;;;;;;;;;;;;5075893;28;19916;-27
2022/03/08 14:40:43;;;;;;;;;;;;;;;;;;5075863;28;19985;-27
2022/03/08 14:43:09;;;;;;;;;;;;;;;;;;5075713;28;19923;-27
2022/03/08 14:45:35;;;;;;;;;;;;;;;;;;5075655;28;19955;-27
2022/03/08 14:48:01;;;;;;;;;;;;;;;;;;5075803;28;19909;-27
2022/03/08 14:50:27;;;;;;;;;;;;;;;;;;5076318;28;19947;-27
2022/03/08 14:52:53;;;;;;;;;;;;;;;;;;5075428;28;19912;-26
2022/03/08 14:55:19;;;;;;;;;;;;;;;;;;5075501;28;20233;-27
2022/03/08 14:57:46;;;;;;;;;;;;;;;;;;5075456;28;19935;-26
2022/03/08 15:00:14;;;;;;;;;;;;;;;;;;5075324;28;19912;-27
2022/03/08 15:02:40;;;;;;;;;;;;;;;;;;5075561;28;19909;-27
2022/03/08 15:05:06;;;;;;;;;;;;;;;;;;5075114;28;19920;-27
2022/03/08 15:07:32;;;;;;;;;;;;;;;;;;5075468;28;20019;-27
2022/03/08 15:09:58;;;;;;;;;;;;;;;;;;5075649;28;19920;-27
2022/03/08 15:12:24;;;;;;;;;;;;;;;;;;5075404;28;20309;-26
2022/03/08 15:14:50;;;;;;;;;;;;;;;;;;5075756;28;19912;-26
2022/03/08 15:17:19;;;;;;;;;;;;;;;;;;5075079;28;19916;-26
2022/03/08 15:19:45;;;;;;;;;;;;;;;;;;5075287;28;20259;-26
2022/03/08 15:22:11;;;;;;;;;;;;;;;;;;5074926;28;19912;-26
2022/03/08 15:24:37;;;;;;;;;;;;;;;;;;5074973;28;19909;-26
2022/03/08 15:27:03;;;;;;;;;;;;;;;;;;5074929;28;19995;-26
2022/03/08 15:29:29;;;;;;;;;;;;;;;;;;5074844;28;19923;-26
2022/03/08 15:31:55;;;;;;;;;;;;;;;;;;5074893;28;19913;-26
2022/03/08 15:34:21;;;;;;;;;;;;;;;;;;5074919;28;19935;-26
2022/03/08 15:36:47;;;;;;;;;;;;;;;;;;5073968;28;19913;-26
2022/03/08 15:39:13;;;;;;;;;;;;;;;;;;5074910;28;19970;-26
2022/03/08 15:41:39;;;;;;;;;;;;;;;;;;5074789;28;19916;-26
2022/03/08 15:44:05;;;;;;;;;;;;;;;;;;5074946;28;19916;-26
2022/03/08 15:46:31;;;;;;;;;;;;;;;;;;5075113;28;20057;-26
2022/03/08 15:48:57;;;;;;;;;;;;;;;;;;5075035;28;19912;-27
2022/03/08 15:51:23;;;;;;;;;;;;;;;;;;5075081;28;20216;-27
2022/03/08 15:53:50;;;;;;;;;;;;;;;;;;5075005;28;20220;-26
2022/03/08 15:56:15;;;;;;;;;;;;;;;;;;5075075;28;19912;-26
2022/03/08 15:58:41;;;;;;;;;;;;;;;;;;5075251;28;19966;-26
2022/03/08 16:01:07;;;;;;;;;;;;;;;;;;5073731;28;19924;-26
2022/03/08 16:03:33;;;;;;;;;;;;;;;;;;5074260;28;19928;-26
2022/03/08 16:05:59;;;;;;;;;;;;;;;;;;5074468;28;19924;-26
2022/03/08 16:08:26;;;;;;;;;;;;;;;;;;5074703;28;19908;-26
2022/03/08 16:10:52;;;;;;;;;;;;;;;;;;5074455;28;19916;-26
2022/03/08 16:13:19;;;;;;;;;;;;;;;;;;5074876;28;19920;-26
2022/03/08 16:15:45;;;;;;;;;;;;;;;;;;5074777;28;19963;-26
2022/03/08 16:18:12;;;;;;;;;;;;;;;;;;5074922;28;19908;-26
2022/03/08 16:20:38;;;;;;;;;;;;;;;;;;5074894;28;19913;-26
2022/03/08 16:23:04;;;;;;;;;;;;;;;;;;5074744;28;20338;-26
2022/03/08 16:25:30;;;;;;;;;;;;;;;;;;5074808;28;20007;-26
2022/03/08 16:27:56;;;;;;;;;;;;;;;;;;5073668;28;19979;-26
2022/03/08 16:30:22;;;;;;;;;;;;;;;;;;5074746;28;19956;-26
2022/03/08 16:32:48;;;;;;;;;;;;;;;;;;5074549;28;20421;-26
2022/03/08 16:35:14;;;;;;;;;;;;;;;;;;5074656;28;19916;-26
2022/03/08 16:37:40;;;;;;;;;;;;;;;;;;5074523;28;19939;-26